createdAt,value
2022-10-10T00:01:57.514Z,100.00
2022-10-10T00:04:26.787Z,100.00
2022-10-10T00:06:54.669Z,100.00
2022-10-10T00:09:22.971Z,100.00
2022-10-10T00:11:50.833Z,100.00
2022-10-10T00:14:18.720Z,100.00
2022-10-10T00:16:46.587Z,100.00
2022-10-10T00:19:14.801Z,100.00
2022-10-10T00:21:44.048Z,100.00
2022-10-10T00:24:11.895Z,100.00
2022-10-10T00:26:39.722Z,100.00
2022-10-10T00:29:07.575Z,100.00
2022-10-10T00:31:35.450Z,100.00
2022-10-10T00:34:03.295Z,100.00
2022-10-10T00:36:31.216Z,100.00
2022-10-10T00:39:01.506Z,100.00
2022-10-10T00:41:29.808Z,100.00
2022-10-10T00:44:09.297Z,100.00
2022-10-10T00:46:37.279Z,100.00
2022-10-10T00:49:07.273Z,100.00
2022-10-10T00:51:35.377Z,100.00
2022-10-10T00:54:07.956Z,100.00
2022-10-10T00:56:41.127Z,100.00
2022-10-10T00:59:11.253Z,100.00
2022-10-10T01:01:39.415Z,100.00
2022-10-10T01:04:07.584Z,100.00
2022-10-10T01:06:35.929Z,100.00
2022-10-10T01:09:05.196Z,100.00
2022-10-10T01:11:46.025Z,100.00
2022-10-10T01:14:21.212Z,100.00
2022-10-10T01:16:59.136Z,100.00
2022-10-10T01:19:56.870Z,100.00
2022-10-10T01:22:33.796Z,100.00
2022-10-10T01:25:18.325Z,100.00
2022-10-10T01:27:51.894Z,100.00
2022-10-10T01:30:23.739Z,100.00
2022-10-10T01:32:55.072Z,100.00
2022-10-10T01:35:35.296Z,100.00
2022-10-10T01:38:15.351Z,100.00
2022-10-10T01:40:48.589Z,100.00
2022-10-10T01:43:17.988Z,100.00
2022-10-10T01:45:48.273Z,100.00
2022-10-10T01:48:20.976Z,100.00
2022-10-10T01:51:05.271Z,100.00
2022-10-10T01:53:42.113Z,100.00
2022-10-10T01:56:14.915Z,100.00
2022-10-10T01:59:09.499Z,100.00
2022-10-10T02:01:48.007Z,100.00
2022-10-10T02:04:24.496Z,100.00
2022-10-10T02:06:56.647Z,100.00
2022-10-10T02:09:30.231Z,100.00
2022-10-10T02:12:00.789Z,100.00
2022-10-10T02:14:34.256Z,100.00
2022-10-10T02:17:05.297Z,100.00
2022-10-10T02:19:33.765Z,100.00
2022-10-10T02:22:03.119Z,100.00
2022-10-10T02:24:31.092Z,100.00
2022-10-10T02:27:06.196Z,100.00
2022-10-10T02:29:38.117Z,100.00
2022-10-10T02:32:12.580Z,100.00
2022-10-10T02:34:46.657Z,100.00
2022-10-10T02:37:16.705Z,100.00
2022-10-10T02:39:47.969Z,100.00
2022-10-10T02:42:19.011Z,100.00
2022-10-10T02:44:48.123Z,100.00
2022-10-10T02:47:17.888Z,100.00
2022-10-10T02:49:45.983Z,100.00
2022-10-10T02:52:16.052Z,100.00
2022-10-10T02:54:44.288Z,100.00
2022-10-10T02:57:12.797Z,100.00
2022-10-10T02:59:40.891Z,100.00
2022-10-10T03:02:09.052Z,100.00
2022-10-10T03:04:38.745Z,100.00
2022-10-10T03:07:07.106Z,100.00
2022-10-10T03:09:35.117Z,100.00
2022-10-10T03:12:03.207Z,100.00
2022-10-10T03:14:31.208Z,100.00
2022-10-10T03:16:59.078Z,100.00
2022-10-10T03:19:27.066Z,100.00
2022-10-10T03:21:56.299Z,100.00
2022-10-10T03:24:24.164Z,100.00
2022-10-10T03:26:52.028Z,100.00
2022-10-10T03:29:19.916Z,100.00
2022-10-10T03:31:47.782Z,100.00
2022-10-10T03:34:15.652Z,100.00
2022-10-10T03:36:43.637Z,100.00
2022-10-10T03:39:12.878Z,100.00
2022-10-10T03:41:40.690Z,100.00
2022-10-10T03:44:08.547Z,100.00
2022-10-10T03:46:36.399Z,100.00
2022-10-10T03:49:04.815Z,100.00
2022-10-10T03:51:32.641Z,100.00
2022-10-10T03:54:00.571Z,100.00
2022-10-10T03:56:29.814Z,100.00
2022-10-10T03:59:00.589Z,100.00
2022-10-10T04:01:28.732Z,100.00
2022-10-10T04:03:56.768Z,100.00
2022-10-10T04:06:24.640Z,100.00
2022-10-10T04:08:52.598Z,100.00
2022-10-10T04:11:20.605Z,100.00
2022-10-10T04:13:49.815Z,100.00
2022-10-10T04:16:17.682Z,100.00
2022-10-10T04:18:45.540Z,100.00
2022-10-10T04:21:13.581Z,100.00
2022-10-10T04:23:41.629Z,100.00
2022-10-10T04:26:09.934Z,100.00
2022-10-10T04:28:37.869Z,100.00
2022-10-10T04:31:07.360Z,100.00
2022-10-10T04:33:35.260Z,100.00
2022-10-10T04:36:03.120Z,100.00
2022-10-10T04:38:30.968Z,100.00
2022-10-10T04:40:58.856Z,100.00
2022-10-10T04:43:26.801Z,100.00
2022-10-10T04:45:56.812Z,100.00
2022-10-10T04:48:26.780Z,100.00
2022-10-10T04:50:55.086Z,100.00
2022-10-10T04:53:23.367Z,100.00
2022-10-10T04:55:51.352Z,100.00
2022-10-10T04:58:19.648Z,100.00
2022-10-10T05:00:52.427Z,100.00
2022-10-10T05:03:20.329Z,100.00
2022-10-10T05:05:49.727Z,100.00
2022-10-10T05:08:18.292Z,100.00
2022-10-10T05:10:47.790Z,100.00
2022-10-10T05:13:17.692Z,100.00
2022-10-10T05:15:45.615Z,100.00
2022-10-10T05:18:13.470Z,100.00
2022-10-10T05:20:43.912Z,100.00
2022-10-10T05:23:13.160Z,100.00
2022-10-10T05:25:41.428Z,100.00
2022-10-10T05:28:09.363Z,100.00
2022-10-10T05:30:37.292Z,100.00
2022-10-10T05:33:05.409Z,100.00
2022-10-10T05:35:33.307Z,100.00
2022-10-10T05:38:01.177Z,100.00
2022-10-10T05:40:30.385Z,100.00
2022-10-10T05:42:58.310Z,100.00
2022-10-10T05:45:26.184Z,100.00
2022-10-10T05:47:54.130Z,100.00
2022-10-10T05:50:31.152Z,100.00
2022-10-10T05:52:59.055Z,100.00
2022-10-10T05:55:27.055Z,100.00
2022-10-10T05:57:56.334Z,100.00
2022-10-10T06:00:24.542Z,100.00
2022-10-10T06:02:52.827Z,100.00
2022-10-10T06:05:20.969Z,100.00
2022-10-10T06:08:09.383Z,100.00
2022-10-10T06:10:37.231Z,100.00
2022-10-10T06:13:06.467Z,100.00
2022-10-10T06:15:34.515Z,100.00
2022-10-10T06:18:02.488Z,100.00
2022-10-10T06:20:30.480Z,100.00
2022-10-10T06:22:58.467Z,100.00
2022-10-10T06:25:40.013Z,100.00
2022-10-10T06:28:10.197Z,100.00
2022-10-10T06:30:41.258Z,100.00
2022-10-10T06:33:09.159Z,100.00
2022-10-10T06:35:40.213Z,100.00
2022-10-10T06:38:08.237Z,100.00
2022-10-10T06:40:36.128Z,100.00
2022-10-10T06:43:04.644Z,100.00
2022-10-10T06:45:37.496Z,100.00
2022-10-10T06:48:05.756Z,100.00
2022-10-10T06:50:33.771Z,100.00
2022-10-10T06:53:01.677Z,100.00
2022-10-10T06:55:29.580Z,100.00
2022-10-10T06:57:58.151Z,100.00
2022-10-10T07:00:26.536Z,100.00
2022-10-10T07:02:55.858Z,100.00
2022-10-10T07:05:23.716Z,100.00
2022-10-10T07:07:53.432Z,100.00
2022-10-10T07:10:21.512Z,100.00
2022-10-10T07:12:49.372Z,100.00
2022-10-10T07:15:17.402Z,100.00
2022-10-10T07:17:47.352Z,100.00
2022-10-10T07:20:19.839Z,100.00
2022-10-10T07:22:47.701Z,100.00
2022-10-10T07:25:15.764Z,99.10
2022-10-10T07:27:43.636Z,96.99
2022-10-10T07:30:12.885Z,93.79
2022-10-10T07:32:40.763Z,93.94
2022-10-10T07:35:09.391Z,94.91
2022-10-10T07:37:38.629Z,94.32
2022-10-10T07:40:08.586Z,93.82
2022-10-10T07:42:36.577Z,93.11
2022-10-10T07:45:05.283Z,94.55
2022-10-10T07:47:33.181Z,91.32
2022-10-10T07:50:01.044Z,89.69
2022-10-10T07:52:28.908Z,88.15
2022-10-10T07:54:58.199Z,88.23
2022-10-10T07:57:26.042Z,89.57
2022-10-10T07:59:53.992Z,88.22
2022-10-10T08:02:21.851Z,89.77
2022-10-10T08:04:50.101Z,91.46
2022-10-10T08:07:19.579Z,90.55
2022-10-10T08:09:47.424Z,88.55
2022-10-10T08:12:16.708Z,86.12
2022-10-10T08:14:44.624Z,89.12
2022-10-10T08:17:12.487Z,89.75
2022-10-10T08:19:40.363Z,89.36
2022-10-10T08:22:08.395Z,88.29
2022-10-10T08:24:36.252Z,87.47
2022-10-10T08:27:04.152Z,85.88
2022-10-10T08:29:34.631Z,84.73
2022-10-10T08:32:02.831Z,84.04
2022-10-10T08:34:30.703Z,80.84
2022-10-10T08:36:58.615Z,81.81
2022-10-10T08:39:26.461Z,81.53
2022-10-10T08:41:57.796Z,79.32
2022-10-10T08:44:31.638Z,78.85
2022-10-10T08:47:04.407Z,78.14
2022-10-10T08:49:36.292Z,80.37
2022-10-10T08:52:09.544Z,80.63
2022-10-10T08:54:39.016Z,78.86
2022-10-10T08:57:19.334Z,77.39
2022-10-10T08:59:47.533Z,75.42
2022-10-10T09:02:43.918Z,76.72
2022-10-10T09:05:21.504Z,76.71
2022-10-10T09:08:13.513Z,75.22
2022-10-10T09:10:54.462Z,75.27
2022-10-10T09:13:33.012Z,74.33
2022-10-10T09:16:03.659Z,73.79
2022-10-10T09:18:49.976Z,72.28
2022-10-10T09:21:21.589Z,70.76
2022-10-10T09:23:55.012Z,69.64
2022-10-10T09:26:27.184Z,68.69
2022-10-10T09:29:01.308Z,65.67
2022-10-10T09:31:35.108Z,66.65
2022-10-10T09:34:13.501Z,66.12
2022-10-10T09:36:41.583Z,66.82
2022-10-10T09:39:20.578Z,67.00
2022-10-10T09:41:55.405Z,66.99
2022-10-10T09:44:23.999Z,66.32
2022-10-10T09:46:52.423Z,66.75
2022-10-10T09:49:22.440Z,66.38
2022-10-10T09:51:51.116Z,65.65
2022-10-10T09:54:20.772Z,66.85
2022-10-10T09:56:53.199Z,66.98
2022-10-10T09:59:46.149Z,66.12
2022-10-10T10:02:15.962Z,65.37
2022-10-10T10:04:45.929Z,66.39
2022-10-10T10:07:29.427Z,66.55
2022-10-10T10:09:59.234Z,65.96
2022-10-10T10:12:30.483Z,66.71
2022-10-10T10:15:04.487Z,65.57
2022-10-10T10:17:32.492Z,65.92
2022-10-10T10:20:01.685Z,65.32
2022-10-10T10:22:35.546Z,65.49
2022-10-10T10:25:31.922Z,65.22
2022-10-10T10:28:17.994Z,65.31
2022-10-10T10:30:46.548Z,64.23
2022-10-10T10:33:26.306Z,63.83
2022-10-10T10:36:01.810Z,63.97
2022-10-10T10:38:42.947Z,62.71
2022-10-10T10:41:18.676Z,62.57
2022-10-10T10:44:02.639Z,62.27
2022-10-10T10:46:45.887Z,61.88
2022-10-10T10:49:18.791Z,62.12
2022-10-10T10:52:04.376Z,61.65
2022-10-10T10:54:45.633Z,62.29
2022-10-10T10:57:32.130Z,61.43
2022-10-10T11:00:22.155Z,61.73
2022-10-10T11:03:35.050Z,62.08
2022-10-10T11:06:06.860Z,62.33
2022-10-10T11:09:02.699Z,62.87
2022-10-10T11:11:42.729Z,62.36
2022-10-10T11:14:26.708Z,62.54
2022-10-10T11:17:00.212Z,61.81
2022-10-10T11:19:33.426Z,62.26
2022-10-10T11:22:07.324Z,62.14
2022-10-10T11:24:45.926Z,61.71
2022-10-10T11:27:20.199Z,61.77
2022-10-10T11:29:58.674Z,62.20
2022-10-10T11:32:31.826Z,62.19
2022-10-10T11:35:17.484Z,61.62
2022-10-10T11:37:51.120Z,62.13
2022-10-10T11:40:43.826Z,62.82
2022-10-10T11:43:20.789Z,63.00
2022-10-10T11:45:56.755Z,63.26
2022-10-10T11:48:37.779Z,63.19
2022-10-10T11:51:19.472Z,62.93
2022-10-10T11:53:52.772Z,63.15
2022-10-10T11:56:30.270Z,62.63
2022-10-10T11:59:03.490Z,62.82
2022-10-10T12:01:34.766Z,62.73
2022-10-10T12:04:02.635Z,63.29
2022-10-10T12:06:36.613Z,62.85
2022-10-10T12:09:10.957Z,62.40
2022-10-10T12:11:44.090Z,62.86
2022-10-10T12:14:18.064Z,63.20
2022-10-10T12:16:46.595Z,62.99
2022-10-10T12:19:19.724Z,62.09
2022-10-10T12:21:57.165Z,62.56
2022-10-10T12:24:26.799Z,61.68
2022-10-10T12:27:28.307Z,61.50
2022-10-10T12:30:18.035Z,61.13
2022-10-10T12:32:47.966Z,61.70
2022-10-10T12:35:32.035Z,60.79
2022-10-10T12:38:15.521Z,60.16
2022-10-10T12:41:13.949Z,60.31
2022-10-10T12:44:13.487Z,59.50
2022-10-10T12:46:42.124Z,58.88
2022-10-10T12:49:21.606Z,57.75
2022-10-10T12:52:04.340Z,59.30
2022-10-10T12:54:38.974Z,59.03
2022-10-10T12:57:15.473Z,58.92
2022-10-10T12:59:44.955Z,59.08
2022-10-10T13:02:19.563Z,58.79
2022-10-10T13:04:49.555Z,58.47
2022-10-10T13:07:22.143Z,58.53
2022-10-10T13:09:51.941Z,58.52
2022-10-10T13:12:25.860Z,57.95
2022-10-10T13:14:55.744Z,57.97
2022-10-10T13:17:26.271Z,57.94
2022-10-10T13:19:55.372Z,58.25
2022-10-10T13:22:24.438Z,58.95
2022-10-10T13:24:53.582Z,59.31
2022-10-10T13:27:23.771Z,59.79
2022-10-10T13:29:53.004Z,59.93
2022-10-10T13:32:26.646Z,60.18
2022-10-10T13:34:58.199Z,60.57
2022-10-10T13:37:26.980Z,60.51
2022-10-10T13:39:55.369Z,61.25
2022-10-10T13:42:30.994Z,60.97
2022-10-10T13:45:00.383Z,61.26
2022-10-10T13:47:54.672Z,61.37
2022-10-10T13:50:28.786Z,62.33
2022-10-10T13:53:25.460Z,62.22
2022-10-10T13:56:01.191Z,62.55
2022-10-10T13:58:31.819Z,62.38
2022-10-10T14:01:02.625Z,62.72
2022-10-10T14:03:35.105Z,63.06
2022-10-10T14:06:03.051Z,62.79
2022-10-10T14:08:34.616Z,63.10
2022-10-10T14:11:05.536Z,62.87
2022-10-10T14:13:35.562Z,63.31
2022-10-10T14:16:22.904Z,63.12
2022-10-10T14:18:52.613Z,63.20
2022-10-10T14:21:20.852Z,63.68
2022-10-10T14:23:48.698Z,63.72
2022-10-10T14:26:18.991Z,63.57
2022-10-10T14:28:47.453Z,63.81
2022-10-10T14:31:15.359Z,64.17
2022-10-10T14:33:43.232Z,64.02
2022-10-10T14:36:14.384Z,63.67
2022-10-10T14:38:42.247Z,63.91
2022-10-10T14:41:13.007Z,63.29
2022-10-10T14:43:45.519Z,63.37
2022-10-10T14:46:18.378Z,63.48
2022-10-10T14:48:46.401Z,63.65
2022-10-10T14:51:33.894Z,63.76
2022-10-10T14:54:11.179Z,64.23
2022-10-10T14:57:08.445Z,63.09
2022-10-10T14:59:48.041Z,63.13
2022-10-10T15:02:18.650Z,63.46
2022-10-10T15:04:46.571Z,63.38
2022-10-10T15:07:16.369Z,63.43
2022-10-10T15:10:09.568Z,63.52
2022-10-10T15:12:32.673Z,63.92
2022-10-10T15:15:02.901Z,64.16
2022-10-10T15:17:33.757Z,64.96
2022-10-10T15:20:01.889Z,65.33
2022-10-10T15:22:31.589Z,65.39
2022-10-10T15:24:59.914Z,65.43
2022-10-10T15:27:28.368Z,65.55
2022-10-10T15:29:58.096Z,65.85
2022-10-10T15:32:26.717Z,66.06
2022-10-10T15:34:54.682Z,66.55
2022-10-10T15:37:26.548Z,67.15
2022-10-10T15:39:55.821Z,67.38
2022-10-10T15:42:23.776Z,67.81
2022-10-10T15:44:52.353Z,68.06
2022-10-10T15:47:21.643Z,68.25
2022-10-10T15:49:49.876Z,68.49
2022-10-10T15:52:18.316Z,68.90
2022-10-10T15:54:49.682Z,69.25
2022-10-10T15:57:19.275Z,69.58
2022-10-10T15:59:47.792Z,69.82
2022-10-10T16:02:15.972Z,70.08
2022-10-10T16:04:43.854Z,70.82
2022-10-10T16:07:26.890Z,71.38
2022-10-10T16:09:57.895Z,71.83
2022-10-10T16:12:27.313Z,72.16
2022-10-10T16:14:55.487Z,72.72
2022-10-10T16:17:23.949Z,73.02
2022-10-10T16:19:52.393Z,73.31
2022-10-10T16:22:20.632Z,73.78
2022-10-10T16:25:17.265Z,74.55
2022-10-10T16:27:38.720Z,75.00
2022-10-10T16:30:08.238Z,75.16
2022-10-10T16:32:41.790Z,75.76
2022-10-10T16:35:11.231Z,76.18
2022-10-10T16:37:39.323Z,76.70
2022-10-10T16:40:08.344Z,76.98
2022-10-10T16:42:36.320Z,77.68
2022-10-10T16:45:06.653Z,78.07
2022-10-10T16:47:34.614Z,78.43
2022-10-10T16:50:03.100Z,78.82
2022-10-10T16:52:33.001Z,79.30
2022-10-10T16:55:00.881Z,79.95
2022-10-10T16:57:28.774Z,80.46
2022-10-10T16:59:56.654Z,81.13
2022-10-10T17:02:25.976Z,81.47
2022-10-10T17:04:53.822Z,82.53
2022-10-10T17:07:21.821Z,83.31
2022-10-10T17:09:49.720Z,84.34
2022-10-10T17:12:17.916Z,85.43
2022-10-10T17:14:45.861Z,86.56
2022-10-10T17:17:14.124Z,86.44
2022-10-10T17:19:43.583Z,86.65
2022-10-10T17:22:11.521Z,87.36
2022-10-10T17:24:39.394Z,87.88
2022-10-10T17:27:07.394Z,87.99
2022-10-10T17:29:35.324Z,88.38
2022-10-10T17:32:06.507Z,88.87
2022-10-10T17:34:35.230Z,89.61
2022-10-10T17:37:04.998Z,90.47
2022-10-10T17:39:33.090Z,91.29
2022-10-10T17:42:01.123Z,91.59
2022-10-10T17:44:29.149Z,91.84
2022-10-10T17:46:57.051Z,92.27
2022-10-10T17:49:25.113Z,92.51
2022-10-10T17:51:53.013Z,93.13
2022-10-10T17:54:23.228Z,93.59
2022-10-10T17:56:51.295Z,94.38
2022-10-10T17:59:19.183Z,94.92
2022-10-10T18:01:47.029Z,95.35
2022-10-10T18:04:16.552Z,94.93
2022-10-10T18:06:44.570Z,95.13
2022-10-10T18:09:12.608Z,95.51
2022-10-10T18:11:41.867Z,95.81
2022-10-10T18:14:09.851Z,96.11
2022-10-10T18:16:38.112Z,96.41
2022-10-10T18:19:08.149Z,97.15
2022-10-10T18:21:36.259Z,97.26
2022-10-10T18:24:04.435Z,98.45
2022-10-10T18:26:33.706Z,98.31
2022-10-10T18:29:03.052Z,98.73
2022-10-10T18:31:33.149Z,97.97
2022-10-10T18:34:01.762Z,97.83
2022-10-10T18:36:32.077Z,98.13
2022-10-10T18:39:00.764Z,98.58
2022-10-10T18:41:34.231Z,99.17
2022-10-10T18:44:04.867Z,99.84
2022-10-10T18:46:32.927Z,99.29
2022-10-10T18:49:02.151Z,98.84
2022-10-10T18:51:31.223Z,98.69
2022-10-10T18:54:02.208Z,97.88
2022-10-10T18:56:31.497Z,97.81
2022-10-10T18:59:02.200Z,98.19
2022-10-10T19:01:35.241Z,99.05
2022-10-10T19:04:04.605Z,99.54
2022-10-10T19:06:32.671Z,100.00
2022-10-10T19:09:02.503Z,100.00
2022-10-10T19:11:32.295Z,100.00
2022-10-10T19:14:01.407Z,100.00
2022-10-10T19:16:29.549Z,99.38
2022-10-10T19:18:59.749Z,100.00
2022-10-10T19:21:29.862Z,100.00
2022-10-10T19:23:59.833Z,99.90
2022-10-10T19:26:33.112Z,99.33
2022-10-10T19:29:06.418Z,99.51
2022-10-10T19:31:34.743Z,99.00
2022-10-10T19:34:04.138Z,98.94
2022-10-10T19:36:32.011Z,99.07
2022-10-10T19:39:00.924Z,98.42
2022-10-10T19:41:29.798Z,98.69
2022-10-10T19:43:58.710Z,98.83
2022-10-10T19:46:28.004Z,99.57
2022-10-10T19:48:58.931Z,100.00
2022-10-10T19:51:29.725Z,100.00
2022-10-10T19:53:57.732Z,100.00
2022-10-10T19:56:26.980Z,100.00
2022-10-10T19:58:56.043Z,100.00
2022-10-10T20:01:29.100Z,100.00
2022-10-10T20:03:57.904Z,100.00
2022-10-10T20:06:26.055Z,100.00
2022-10-10T20:08:55.444Z,100.00
2022-10-10T20:11:26.250Z,100.00
2022-10-10T20:13:55.450Z,100.00
2022-10-10T20:16:24.473Z,100.00
2022-10-10T20:18:52.405Z,100.00
2022-10-10T20:21:23.713Z,100.00
2022-10-10T20:23:51.792Z,100.00
2022-10-10T20:26:23.438Z,100.00
2022-10-10T20:28:52.347Z,100.00
2022-10-10T20:31:22.398Z,100.00
2022-10-10T20:33:51.414Z,100.00
2022-10-10T20:36:21.235Z,100.00
2022-10-10T20:38:53.784Z,100.00
2022-10-10T20:41:24.545Z,100.00
2022-10-10T20:43:58.271Z,100.00
2022-10-10T20:46:27.683Z,100.00
2022-10-10T20:48:56.160Z,100.00
2022-10-10T20:51:24.356Z,100.00
2022-10-10T20:53:56.987Z,100.00
2022-10-10T20:56:26.963Z,100.00
2022-10-10T20:58:55.015Z,100.00
2022-10-10T21:01:25.087Z,100.00
2022-10-10T21:03:53.367Z,100.00
2022-10-10T21:06:23.922Z,100.00
2022-10-10T21:08:52.400Z,100.00
2022-10-10T21:11:20.979Z,100.00
2022-10-10T21:13:56.355Z,100.00
2022-10-10T21:16:26.154Z,100.00
2022-10-10T21:18:58.055Z,100.00
2022-10-10T21:21:27.061Z,100.00
2022-10-10T21:23:56.488Z,100.00
2022-10-10T21:26:26.621Z,100.00
2022-10-10T21:28:56.491Z,100.00
2022-10-10T21:31:26.317Z,100.00
2022-10-10T21:33:54.613Z,100.00
2022-10-10T21:36:24.228Z,100.00
2022-10-10T21:38:52.116Z,100.00
2022-10-10T21:41:21.588Z,100.00
2022-10-10T21:43:52.210Z,100.00
2022-10-10T21:46:23.458Z,100.00
2022-10-10T21:48:52.310Z,100.00
2022-10-10T21:51:20.635Z,100.00
2022-10-10T21:53:49.177Z,100.00
2022-10-10T21:56:17.808Z,100.00
2022-10-10T21:58:46.316Z,100.00
2022-10-10T22:01:16.486Z,100.00
2022-10-10T22:03:47.205Z,100.00
2022-10-10T22:06:18.172Z,100.00
2022-10-10T22:08:47.492Z,100.00
2022-10-10T22:11:17.573Z,100.00
2022-10-10T22:13:45.511Z,100.00
2022-10-10T22:16:13.545Z,100.00
2022-10-10T22:18:41.920Z,100.00
2022-10-10T22:21:13.812Z,100.00
2022-10-10T22:23:41.998Z,100.00
2022-10-10T22:26:11.412Z,100.00
2022-10-10T22:28:39.771Z,100.00
2022-10-10T22:31:08.449Z,100.00
2022-10-10T22:33:36.376Z,100.00
2022-10-10T22:36:05.110Z,100.00
2022-10-10T22:38:37.039Z,100.00
2022-10-10T22:41:04.902Z,100.00
2022-10-10T22:43:32.862Z,100.00
2022-10-10T22:46:00.867Z,100.00
2022-10-10T22:48:28.950Z,100.00
2022-10-10T22:51:01.616Z,100.00
2022-10-10T22:53:29.903Z,100.00
2022-10-10T22:55:59.547Z,100.00
2022-10-10T22:58:27.584Z,100.00
2022-10-10T23:00:55.517Z,100.00
2022-10-10T23:03:23.426Z,100.00
2022-10-10T23:05:51.239Z,100.00
2022-10-10T23:08:19.072Z,100.00
2022-10-10T23:10:48.013Z,100.00
2022-10-10T23:13:17.191Z,100.00
2022-10-10T23:15:45.195Z,100.00
2022-10-10T23:18:13.105Z,100.00
2022-10-10T23:20:40.963Z,100.00
2022-10-10T23:23:08.868Z,100.00
2022-10-10T23:25:41.821Z,100.00
2022-10-10T23:28:10.151Z,100.00
2022-10-10T23:30:41.040Z,100.00
2022-10-10T23:33:09.267Z,100.00
2022-10-10T23:35:37.220Z,100.00
2022-10-10T23:38:05.311Z,100.00
2022-10-10T23:40:34.126Z,100.00
2022-10-10T23:43:02.122Z,100.00
2022-10-10T23:45:30.004Z,100.00
2022-10-10T23:47:59.269Z,100.00
2022-10-10T23:50:27.112Z,100.00
2022-10-10T23:52:54.946Z,100.00
2022-10-10T23:55:22.905Z,100.00
2022-10-10T23:57:50.764Z,100.00
